METAR AND TAF INFORMATION
METAR FOR UACK
ADDS - METARS form results

(2258 UTC 08 August 2020)
Data provider http://aviationweather.gov/metar/data/
 
Forecast for: UACK (KOKSHETAU , KZ)
Text: TAF UACK 081100Z 0812/0821 21005MPS 9999 SCT040
Forecast period: 1200 to 2100 UTC 08 August 2020
Forecast type: FROM: standard forecast or significant change
Winds: from the SSW (210 degrees) at 12 MPH (10 knots; 5.1 m/s)
Visibility: 6 or more miles (10+ km)
Ceiling: at least 12,000 feet AGL
Clouds: scattered clouds at 4000 feet AGL
Weather: no significant weather forecast for this period
Text: TEMPO 0812/0821 17006MPS -TSRA BKN040CB
Forecast period: 1200 to 2100 UTC 08 August 2020
Forecast type: TEMPORARY: The following changes expected for less than half the time period
Winds: from the S (170 degrees) at 14 MPH (12 knots; 6.2 m/s)
Visibility: missing
Ceiling: 4000 feet AGL
Clouds: broken clouds at 4000 feet AGL
Weather: -TSRA  (light rain associated with thunderstorm(s))

 AIRPORT MAP

 RUNWAY INFORMATION

 AIRPORT FREQUENCIES

 AIRPORT NEAR NAVIGATION AIDS



2018 Air Astana Virtual Airline